Time;durP1;ratioP1;P1;durP2;ratioP2;P2;SDS_P1;SDS_P2;PMS_P1;PMS_P2;Temp;Humidity;BMP_temperature;BMP_pressure;BME280_temperature;BME280_humidity;BME280_pressure;Samples;Min_cycle;Max_cycle;Signal;HPM_P1;HPM_P2
2023/08/29 00:00:19;;;;;;;2.95;2.10;;;12.50;99.90;;;;;;5031051;28;20133;-84
2023/08/29 00:02:45;;;;;;;2.25;2.05;;;12.40;99.90;;;;;;5034247;28;20037;-84
2023/08/29 00:05:12;;;;;;;3.85;2.53;;;12.40;99.90;;;;;;5030627;28;20271;-85
2023/08/29 00:07:38;;;;;;;2.72;2.50;;;12.40;99.90;;;;;;5034963;28;20029;-85
2023/08/29 00:10:04;;;;;;;2.67;2.25;;;12.30;99.90;;;;;;5029313;28;20068;-84
2023/08/29 00:12:32;;;;;;;2.53;2.33;;;12.30;99.90;;;;;;5035496;28;20108;-84
2023/08/29 00:14:58;;;;;;;3.08;1.92;;;12.30;99.90;;;;;;5030313;28;20083;-85
2023/08/29 00:17:24;;;;;;;2.75;2.40;;;12.20;99.90;;;;;;5041031;28;20021;-85
2023/08/29 00:19:49;;;;;;;2.97;1.77;;;12.20;99.90;;;;;;5035596;28;20024;-84
2023/08/29 00:22:15;;;;;;;3.35;2.17;;;12.10;99.90;;;;;;5036626;28;20022;-84
2023/08/29 00:24:44;;;;;;;2.33;2.17;;;12.10;99.90;;;;;;5039584;28;20026;-85
2023/08/29 00:27:10;;;;;;;2.10;2.00;;;12.10;99.90;;;;;;5037119;28;20029;-85
2023/08/29 00:29:36;;;;;;;3.20;2.25;;;12.10;99.90;;;;;;5028011;28;20497;-84
2023/08/29 00:32:02;;;;;;;2.08;1.88;;;12.00;99.90;;;;;;5028199;28;20065;-84
2023/08/29 00:34:27;;;;;;;2.25;2.00;;;12.00;99.90;;;;;;5035248;28;20032;-84
2023/08/29 00:36:53;;;;;;;3.72;2.25;;;12.00;99.90;;;;;;5039491;28;20093;-84
2023/08/29 00:39:19;;;;;;;2.60;2.33;;;11.90;99.90;;;;;;5039602;28;20053;-84
2023/08/29 00:41:49;;;;;;;2.35;2.10;;;11.90;99.90;;;;;;5038660;28;20025;-84
2023/08/29 00:44:16;;;;;;;2.80;2.42;;;11.90;99.90;;;;;;5040414;28;20022;-84
2023/08/29 00:46:43;;;;;;;2.03;1.80;;;11.90;99.90;;;;;;5039777;28;20010;-84
2023/08/29 00:49:09;;;;;;;4.70;2.67;;;11.90;99.90;;;;;;5040898;28;20026;-83
2023/08/29 00:51:35;;;;;;;3.30;2.22;;;11.90;99.90;;;;;;5026618;28;20109;-84
2023/08/29 00:54:02;;;;;;;2.40;2.20;;;11.80;99.90;;;;;;5026923;28;20052;-83
2023/08/29 00:56:27;;;;;;;2.20;2.00;;;11.80;99.90;;;;;;5032602;28;20069;-85
2023/08/29 00:58:54;;;;;;;2.38;2.13;;;11.80;99.90;;;;;;5035706;28;20040;-84
2023/08/29 01:01:20;;;;;;;2.22;2.00;;;11.70;99.90;;;;;;5036448;28;20053;-84
2023/08/29 01:03:48;;;;;;;2.45;2.20;;;11.70;99.90;;;;;;5024533;28;20036;-81
2023/08/29 01:06:14;;;;;;;2.65;2.45;;;11.70;99.90;;;;;;5033355;28;20091;-84
2023/08/29 01:08:40;;;;;;;2.08;1.90;;;11.60;99.90;;;;;;5041584;28;20045;-84
2023/08/29 01:11:19;;;;;;;3.20;2.58;;;11.60;99.90;;;;;;5043246;28;20088;-83
2023/08/29 01:13:57;;;;;;;3.45;2.40;;;11.60;99.90;;;;;;5029517;28;20454;-84
2023/08/29 01:16:33;;;;;;;2.38;2.17;;;11.60;99.90;;;;;;5030535;28;20461;-85
2023/08/29 01:19:03;;;;;;;6.40;2.50;;;11.60;99.90;;;;;;5021865;28;20037;-85
2023/08/29 01:21:29;;;;;;;3.53;2.13;;;11.50;99.90;;;;;;5031285;28;20030;-83
2023/08/29 01:24:02;;;;;;;2.60;2.38;;;11.50;99.90;;;;;;5025200;28;20033;-85
2023/08/29 01:26:29;;;;;;;2.65;2.20;;;11.50;99.90;;;;;;5024775;28;20042;-84
2023/08/29 01:28:56;;;;;;;2.22;2.10;;;11.40;99.90;;;;;;5036449;28;20026;-84
2023/08/29 01:31:22;;;;;;;3.65;2.47;;;11.40;99.90;;;;;;5022750;28;20038;-84
2023/08/29 01:33:48;;;;;;;3.13;1.83;;;11.40;99.90;;;;;;5032703;28;20355;-83
2023/08/29 01:36:13;;;;;;;2.13;2.00;;;11.40;99.90;;;;;;5022953;28;20430;-85
2023/08/29 01:38:39;;;;;;;2.22;2.03;;;11.30;99.90;;;;;;5027951;28;20680;-85
2023/08/29 01:41:04;;;;;;;3.83;2.10;;;11.30;99.90;;;;;;5031265;28;20038;-83
2023/08/29 01:43:30;;;;;;;2.30;1.90;;;11.20;99.90;;;;;;5030478;28;20025;-85
2023/08/29 01:45:55;;;;;;;2.40;2.00;;;11.20;99.90;;;;;;5034617;28;20033;-84
2023/08/29 01:48:21;;;;;;;1.98;1.77;;;11.20;99.90;;;;;;5026548;28;20033;-85
2023/08/29 01:50:48;;;;;;;1.85;1.60;;;11.20;99.90;;;;;;5031589;28;20048;-84
2023/08/29 01:53:13;;;;;;;2.78;2.22;;;11.20;99.90;;;;;;5029421;28;20359;-85
2023/08/29 01:55:40;;;;;;;2.58;1.92;;;11.10;99.90;;;;;;5030700;28;20029;-85
2023/08/29 01:58:07;;;;;;;2.03;1.92;;;11.10;99.90;;;;;;5032758;28;20025;-83
2023/08/29 02:00:34;;;;;;;3.85;2.95;;;11.10;99.90;;;;;;5029947;28;20034;-84
2023/08/29 02:03:00;;;;;;;2.78;1.92;;;11.10;99.90;;;;;;5029753;28;20172;-85
2023/08/29 02:05:25;;;;;;;3.85;2.30;;;11.00;99.90;;;;;;5032248;28;20018;-84
2023/08/29 02:07:51;;;;;;;2.00;1.90;;;11.00;99.90;;;;;;5035021;28;20044;-83
2023/08/29 02:10:17;;;;;;;3.42;2.30;;;11.00;99.90;;;;;;5031567;28;20022;-84
2023/08/29 02:12:42;;;;;;;3.60;2.50;;;11.00;99.90;;;;;;5029203;28;20026;-85
2023/08/29 02:15:09;;;;;;;2.38;2.17;;;10.90;99.90;;;;;;5030190;28;20033;-85
2023/08/29 02:17:36;;;;;;;2.60;2.40;;;11.00;99.90;;;;;;5026998;28;20046;-84
2023/08/29 02:20:03;;;;;;;3.25;2.22;;;10.90;99.90;;;;;;5029620;28;20132;-85
2023/08/29 02:22:30;;;;;;;3.72;2.83;;;10.90;99.90;;;;;;5033963;28;20022;-83
2023/08/29 02:24:56;;;;;;;2.97;2.40;;;10.90;99.90;;;;;;5037161;28;20041;-84
2023/08/29 02:27:22;;;;;;;2.70;2.50;;;10.90;99.90;;;;;;5025171;28;20014;-84
2023/08/29 02:29:47;;;;;;;3.13;2.05;;;10.90;99.90;;;;;;5038784;28;20056;-84
2023/08/29 02:32:14;;;;;;;5.03;2.67;;;10.80;99.90;;;;;;5043532;28;20038;-83
2023/08/29 02:34:39;;;;;;;4.80;2.22;;;10.80;99.90;;;;;;5031749;28;20121;-84
2023/08/29 02:37:05;;;;;;;2.30;2.10;;;10.80;99.90;;;;;;5034414;28;20033;-84
2023/08/29 02:39:31;;;;;;;3.03;2.00;;;10.80;99.90;;;;;;5038746;28;20057;-84
2023/08/29 02:41:57;;;;;;;3.70;2.45;;;10.80;99.90;;;;;;5033437;28;20048;-84
2023/08/29 02:44:23;;;;;;;4.07;2.13;;;10.70;99.90;;;;;;5037247;28;20030;-84
2023/08/29 02:46:48;;;;;;;1.90;1.80;;;10.70;99.90;;;;;;5038494;28;20018;-83
2023/08/29 02:49:14;;;;;;;2.22;2.03;;;10.70;99.90;;;;;;5036111;28;20480;-83
2023/08/29 02:51:39;;;;;;;1.77;1.65;;;10.70;99.90;;;;;;5038080;28;20038;-84
2023/08/29 02:54:05;;;;;;;2.10;1.90;;;10.70;99.90;;;;;;5030979;28;20033;-84
2023/08/29 02:56:30;;;;;;;2.63;2.42;;;10.70;99.90;;;;;;5036918;28;20071;-83
2023/08/29 02:58:58;;;;;;;3.35;2.20;;;10.60;99.90;;;;;;5028572;28;20033;-83
2023/08/29 03:01:24;;;;;;;2.33;2.20;;;10.60;99.90;;;;;;5034529;28;20048;-84
2023/08/29 03:03:50;;;;;;;2.53;2.33;;;10.60;99.90;;;;;;5031015;28;20017;-84
2023/08/29 03:06:15;;;;;;;2.17;1.90;;;10.60;99.90;;;;;;5034747;28;20083;-83
2023/08/29 03:08:41;;;;;;;2.00;1.80;;;10.60;99.90;;;;;;5034621;28;20022;-84
2023/08/29 03:11:06;;;;;;;2.38;1.98;;;10.60;99.90;;;;;;5040683;28;20337;-83
2023/08/29 03:13:32;;;;;;;3.40;2.55;;;10.60;99.90;;;;;;5036765;28;20026;-83
2023/08/29 03:15:59;;;;;;;1.88;1.70;;;10.50;99.90;;;;;;5033993;28;20025;-84
2023/08/29 03:18:26;;;;;;;2.80;2.20;;;10.50;99.90;;;;;;5023379;28;20018;-83
2023/08/29 03:20:52;;;;;;;2.85;2.50;;;10.50;99.90;;;;;;5037926;28;20025;-84
2023/08/29 03:23:18;;;;;;;2.47;2.28;;;10.50;99.90;;;;;;5025431;28;20026;-85
2023/08/29 03:25:43;;;;;;;2.72;2.53;;;10.50;99.90;;;;;;5024793;28;20036;-83
2023/08/29 03:28:09;;;;;;;2.83;2.40;;;10.50;99.90;;;;;;5029074;28;20026;-84
2023/08/29 03:30:35;;;;;;;3.33;2.63;;;10.50;99.90;;;;;;5040107;28;20058;-83
2023/08/29 03:33:01;;;;;;;2.50;2.28;;;10.50;99.90;;;;;;5048858;28;20041;-82
2023/08/29 03:35:26;;;;;;;2.63;2.42;;;10.40;99.90;;;;;;5042762;28;20044;-83
2023/08/29 03:37:52;;;;;;;2.67;2.38;;;10.50;99.90;;;;;;5029120;28;20029;-84
2023/08/29 03:40:18;;;;;;;3.08;2.78;;;10.40;99.90;;;;;;5039721;28;20048;-84
2023/08/29 03:42:43;;;;;;;2.95;2.72;;;10.40;99.90;;;;;;5036936;28;20405;-82
2023/08/29 03:45:09;;;;;;;3.00;2.65;;;10.40;99.90;;;;;;5039334;28;20021;-83
2023/08/29 03:47:39;;;;;;;4.03;3.00;;;10.40;99.90;;;;;;5039718;28;20208;-84
2023/08/29 03:50:06;;;;;;;3.40;3.10;;;10.40;99.90;;;;;;5038713;28;20097;-83
2023/08/29 03:52:31;;;;;;;2.90;2.70;;;10.40;99.90;;;;;;5039454;28;20026;-83
2023/08/29 03:54:57;;;;;;;3.88;3.10;;;10.40;99.90;;;;;;5036512;28;20089;-83
2023/08/29 03:57:23;;;;;;;3.90;3.28;;;10.40;99.90;;;;;;5043806;28;20043;-83
2023/08/29 03:59:49;;;;;;;3.53;3.05;;;10.40;99.90;;;;;;5034387;28;20042;-84
2023/08/29 04:02:14;;;;;;;2.85;2.58;;;10.40;99.90;;;;;;5042825;28;20048;-83
2023/08/29 04:04:43;;;;;;;3.25;2.72;;;10.40;99.90;;;;;;5043282;28;20026;-83
2023/08/29 04:07:09;;;;;;;3.40;2.78;;;10.40;99.90;;;;;;5040873;28;20021;-83
2023/08/29 04:09:35;;;;;;;4.53;3.05;;;10.30;99.90;;;;;;5028637;28;20057;-84
2023/08/29 04:12:01;;;;;;;3.53;3.22;;;10.30;99.90;;;;;;5034382;28;20041;-84
2023/08/29 04:14:26;;;;;;;3.72;3.40;;;10.30;99.90;;;;;;5028896;28;20014;-84
2023/08/29 04:16:52;;;;;;;5.47;3.70;;;10.30;99.90;;;;;;5037820;28;20057;-84
2023/08/29 04:19:18;;;;;;;4.53;3.58;;;10.30;99.90;;;;;;5025911;28;20030;-84
2023/08/29 04:21:43;;;;;;;4.78;4.13;;;10.30;99.90;;;;;;5041007;28;20033;-82
2023/08/29 04:24:10;;;;;;;5.65;4.07;;;10.30;99.90;;;;;;5025776;28;20038;-84
2023/08/29 04:26:35;;;;;;;4.45;3.83;;;10.30;99.90;;;;;;5037415;28;20021;-83
2023/08/29 04:29:01;;;;;;;4.07;3.67;;;10.30;99.90;;;;;;5034455;28;20014;-84
2023/08/29 04:31:26;;;;;;;4.63;3.63;;;10.30;99.90;;;;;;5028765;28;20097;-84
2023/08/29 04:33:52;;;;;;;4.60;3.90;;;10.30;99.90;;;;;;5030180;28;20097;-84
2023/08/29 04:36:18;;;;;;;3.85;3.53;;;10.30;99.90;;;;;;5028644;28;20049;-83
2023/08/29 04:38:45;;;;;;;4.35;3.78;;;10.40;99.90;;;;;;5036464;28;20040;-85
2023/08/29 04:41:11;;;;;;;5.60;5.03;;;10.40;99.90;;;;;;5025532;28;20034;-84
2023/08/29 04:43:38;;;;;;;4.93;4.43;;;10.40;99.90;;;;;;5027084;28;20026;-83
2023/08/29 04:46:04;;;;;;;5.10;4.60;;;10.40;99.90;;;;;;5028664;28;20113;-83
2023/08/29 04:48:30;;;;;;;5.50;5.00;;;10.40;99.90;;;;;;5034770;28;20053;-83
2023/08/29 04:50:56;;;;;;;5.25;3.97;;;10.40;99.90;;;;;;5028698;28;20099;-83
2023/08/29 04:53:21;;;;;;;4.38;3.95;;;10.50;99.90;;;;;;5028064;28;20030;-84
2023/08/29 04:55:47;;;;;;;4.95;3.97;;;10.40;99.90;;;;;;5033893;28;20032;-84
2023/08/29 04:58:12;;;;;;;4.40;3.97;;;10.50;99.90;;;;;;5017700;28;20266;-84
2023/08/29 05:00:38;;;;;;;4.45;4.05;;;10.50;99.90;;;;;;5030696;28;20061;-85
2023/08/29 05:03:04;;;;;;;5.30;4.80;;;10.50;99.90;;;;;;5026733;28;20026;-85
2023/08/29 05:05:30;;;;;;;8.45;6.38;;;10.50;99.90;;;;;;5036790;28;20056;-83
2023/08/29 05:07:56;;;;;;;9.52;6.22;;;10.60;99.90;;;;;;5037774;28;20029;-84
2023/08/29 05:10:22;;;;;;;6.80;5.60;;;10.70;99.90;;;;;;5029365;28;20030;-82
2023/08/29 05:12:48;;;;;;;8.75;6.18;;;10.70;99.90;;;;;;5040023;28;20060;-83
2023/08/29 05:15:14;;;;;;;6.63;5.28;;;10.70;99.90;;;;;;5034364;28;20033;-83
2023/08/29 05:17:40;;;;;;;8.15;6.35;;;10.70;99.90;;;;;;5037275;28;20045;-84
2023/08/29 05:20:09;;;;;;;8.20;6.38;;;10.80;99.90;;;;;;5033607;28;20025;-84
2023/08/29 05:22:35;;;;;;;10.63;7.78;;;10.90;99.90;;;;;;5035471;28;20109;-84
2023/08/29 05:25:01;;;;;;;10.13;7.40;;;10.90;99.90;;;;;;5034427;28;20081;-83
2023/08/29 05:27:26;;;;;;;7.68;6.72;;;10.90;99.90;;;;;;5029055;28;20345;-84
2023/08/29 05:29:52;;;;;;;7.63;6.85;;;11.00;99.90;;;;;;5028502;28;20053;-85
2023/08/29 05:32:17;;;;;;;8.75;6.88;;;11.00;99.90;;;;;;5028814;28;20040;-85
2023/08/29 05:34:43;;;;;;;7.72;5.88;;;11.00;99.90;;;;;;5029039;28;20061;-83
2023/08/29 05:37:09;;;;;;;8.65;6.72;;;11.00;99.90;;;;;;5025915;28;20496;-85
2023/08/29 05:39:34;;;;;;;6.97;6.28;;;11.10;99.90;;;;;;5020252;28;20049;-85
2023/08/29 05:42:00;;;;;;;7.85;5.47;;;11.10;99.90;;;;;;5028688;28;20035;-85
2023/08/29 05:44:25;;;;;;;7.28;6.57;;;11.10;99.90;;;;;;5021991;28;20030;-85
2023/08/29 05:46:51;;;;;;;8.57;6.85;;;11.10;99.90;;;;;;5026186;28;20036;-85
2023/08/29 05:49:16;;;;;;;6.63;5.80;;;11.20;99.90;;;;;;5028861;28;20041;-85
2023/08/29 05:51:42;;;;;;;7.35;6.28;;;11.20;99.90;;;;;;5023443;28;20030;-83
2023/08/29 05:54:07;;;;;;;6.63;5.97;;;11.20;99.90;;;;;;5024749;28;20044;-85
2023/08/29 05:56:33;;;;;;;6.15;5.28;;;11.30;99.90;;;;;;5026793;28;20029;-85
2023/08/29 05:58:58;;;;;;;6.45;4.88;;;11.30;99.90;;;;;;5029879;28;20060;-85
2023/08/29 06:01:24;;;;;;;6.45;5.30;;;11.30;99.90;;;;;;5027315;28;20386;-83
2023/08/29 06:03:50;;;;;;;4.97;4.57;;;11.30;99.90;;;;;;5029559;28;20021;-85
2023/08/29 06:06:15;;;;;;;5.30;4.38;;;11.30;99.90;;;;;;5024125;28;20079;-85
2023/08/29 06:08:41;;;;;;;7.72;6.50;;;11.40;99.90;;;;;;5024585;28;20025;-85
2023/08/29 06:11:06;;;;;;;7.90;7.10;;;11.40;99.90;;;;;;5034480;28;20309;-84
2023/08/29 06:13:32;;;;;;;9.57;7.68;;;11.50;99.90;;;;;;5033425;28;20623;-85
2023/08/29 06:15:58;;;;;;;10.20;6.93;;;11.50;99.90;;;;;;5035012;28;20021;-84
2023/08/29 06:18:24;;;;;;;7.10;6.40;;;11.60;99.90;;;;;;5038587;28;20502;-84
2023/08/29 06:20:49;;;;;;;7.28;6.57;;;11.70;99.90;;;;;;5031712;28;20029;-84
2023/08/29 06:23:15;;;;;;;6.88;6.18;;;11.70;99.90;;;;;;5036186;28;20029;-84
2023/08/29 06:25:41;;;;;;;7.57;6.85;;;11.80;99.90;;;;;;5030568;28;20022;-85
2023/08/29 06:28:07;;;;;;;10.07;6.47;;;11.80;99.90;;;;;;5037645;28;20027;-83
2023/08/29 06:30:34;;;;;;;7.22;6.53;;;11.90;99.90;;;;;;5031358;28;20021;-85
2023/08/29 06:32:59;;;;;;;7.72;6.65;;;11.90;99.90;;;;;;5037560;28;20029;-84
2023/08/29 06:35:25;;;;;;;9.13;7.13;;;12.00;99.90;;;;;;5027480;28;20030;-84
2023/08/29 06:37:51;;;;;;;7.68;6.53;;;12.00;99.90;;;;;;5033721;28;20079;-84
2023/08/29 06:40:16;;;;;;;7.43;6.65;;;12.10;99.90;;;;;;5034737;28;20029;-85
2023/08/29 06:42:42;;;;;;;8.25;6.20;;;12.10;99.90;;;;;;5034653;28;20088;-85
2023/08/29 06:45:08;;;;;;;7.00;6.30;;;12.10;99.90;;;;;;5037279;28;20105;-84
2023/08/29 06:47:34;;;;;;;8.38;6.43;;;12.20;99.90;;;;;;5037642;28;20033;-85
2023/08/29 06:49:59;;;;;;;7.93;6.60;;;12.30;99.90;;;;;;5033399;28;20094;-85
2023/08/29 06:52:28;;;;;;;8.25;6.40;;;12.30;99.90;;;;;;5036868;28;20029;-86
2023/08/29 06:54:54;;;;;;;10.45;6.63;;;12.30;99.90;;;;;;5030271;28;20026;-85
2023/08/29 06:57:19;;;;;;;8.07;6.18;;;12.40;99.90;;;;;;5040936;28;20025;-84
2023/08/29 06:59:45;;;;;;;12.30;7.45;;;12.50;99.90;;;;;;5037068;28;20034;-85
2023/08/29 07:02:10;;;;;;;8.25;6.70;;;12.50;99.90;;;;;;5039116;28;20037;-86
2023/08/29 07:04:36;;;;;;;8.52;6.85;;;12.60;99.90;;;;;;5033836;28;20022;-85
2023/08/29 07:07:02;;;;;;;9.07;6.32;;;12.70;99.90;;;;;;5031046;28;20061;-87
2023/08/29 07:09:30;;;;;;;8.88;7.07;;;12.80;99.90;;;;;;5023720;28;20021;-88
2023/08/29 07:11:56;;;;;;;8.52;5.90;;;12.90;99.90;;;;;;5017426;28;20197;-88
2023/08/29 07:14:22;;;;;;;7.07;6.10;;;13.00;99.90;;;;;;5024439;28;20666;-88
2023/08/29 07:16:48;;;;;;;7.40;5.90;;;13.10;99.90;;;;;;5025340;28;20109;-87
2023/08/29 07:19:13;;;;;;;6.38;5.45;;;13.10;99.90;;;;;;5022007;28;20034;-87
2023/08/29 07:21:40;;;;;;;7.80;5.13;;;13.20;99.90;;;;;;5027167;28;20108;-88
2023/08/29 07:24:06;;;;;;;5.13;4.63;;;13.30;99.90;;;;;;5020780;28;20033;-87
2023/08/29 07:26:31;;;;;;;4.82;4.22;;;13.40;99.90;;;;;;5013523;28;20026;-90
2023/08/29 07:28:57;;;;;;;5.07;4.55;;;13.50;99.90;;;;;;5018012;28;20705;-88
2023/08/29 07:31:22;;;;;;;3.83;3.53;;;13.50;99.90;;;;;;5017987;28;20037;-87
2023/08/29 07:33:48;;;;;;;7.50;3.67;;;13.60;99.90;;;;;;5020556;28;20076;-89
2023/08/29 07:36:15;;;;;;;4.85;3.78;;;13.70;99.90;;;;;;5020732;28;20030;-88
2023/08/29 07:38:42;;;;;;;4.35;3.95;;;13.80;99.90;;;;;;5026542;28;20026;-88
2023/08/29 07:41:07;;;;;;;4.13;3.72;;;13.90;99.90;;;;;;5014262;28;20073;-88
2023/08/29 07:43:33;;;;;;;3.42;3.13;;;14.00;99.90;;;;;;5026990;28;20037;-88
2023/08/29 07:45:59;;;;;;;3.72;3.42;;;14.10;99.90;;;;;;5020163;28;20481;-88
2023/08/29 07:48:25;;;;;;;5.63;3.65;;;14.10;99.90;;;;;;5028381;28;20037;-87
2023/08/29 07:50:51;;;;;;;5.43;3.35;;;14.10;99.90;;;;;;5020490;28;20359;-87
2023/08/29 07:53:17;;;;;;;5.38;3.08;;;14.20;99.90;;;;;;5012780;28;20109;-88
2023/08/29 07:55:43;;;;;;;4.07;2.97;;;14.20;99.90;;;;;;5024018;28;20124;-88
2023/08/29 07:58:09;;;;;;;3.25;2.90;;;14.30;99.90;;;;;;5020238;28;20485;-87
2023/08/29 08:00:34;;;;;;;3.80;2.45;;;14.40;99.90;;;;;;5025548;28;20049;-88
2023/08/29 08:03:00;;;;;;;5.15;3.15;;;14.50;99.90;;;;;;5020130;28;20493;-89
2023/08/29 08:05:27;;;;;;;5.97;3.33;;;14.50;99.90;;;;;;5027363;28;20048;-88
2023/08/29 08:07:53;;;;;;;3.35;2.83;;;14.50;99.90;;;;;;5022839;28;20029;-87
2023/08/29 08:10:19;;;;;;;2.88;2.67;;;14.60;99.90;;;;;;5018870;28;20323;-88
2023/08/29 08:12:49;;;;;;;3.58;2.38;;;14.70;99.90;;;;;;5025651;28;20018;-88
2023/08/29 08:15:15;;;;;;;3.55;2.55;;;14.70;99.90;;;;;;5019116;28;20113;-88
2023/08/29 08:17:41;;;;;;;5.30;2.65;;;14.80;99.90;;;;;;5024404;28;20044;-88
2023/08/29 08:20:08;;;;;;;3.03;2.72;;;14.80;99.90;;;;;;5023156;28;20477;-88
2023/08/29 08:22:40;;;;;;;4.80;2.95;;;14.90;99.90;;;;;;5013716;28;20109;-88
2023/08/29 08:25:07;;;;;;;5.03;3.45;;;15.00;99.90;;;;;;5021695;28;20025;-88
2023/08/29 08:27:34;;;;;;;4.80;4.30;;;15.00;99.90;;;;;;5022350;28;20053;-89
2023/08/29 08:30:00;;;;;;;5.43;4.22;;;15.00;99.90;;;;;;5023305;28;20021;-87
2023/08/29 08:32:25;;;;;;;3.58;3.25;;;15.10;99.90;;;;;;5024699;28;20057;-88
2023/08/29 08:34:51;;;;;;;6.63;3.55;;;15.10;99.90;;;;;;5019780;28;20049;-89
2023/08/29 08:37:17;;;;;;;4.57;3.15;;;15.10;99.90;;;;;;5019161;28;20072;-90
2023/08/29 08:39:43;;;;;;;4.43;2.50;;;15.10;99.90;;;;;;5021303;28;20117;-87
2023/08/29 08:42:14;;;;;;;2.60;2.40;;;15.20;99.90;;;;;;5017162;28;20034;-89
2023/08/29 08:44:41;;;;;;;3.90;2.83;;;15.30;99.90;;;;;;5021231;28;20121;-88
2023/08/29 08:47:07;;;;;;;3.83;2.88;;;15.30;99.90;;;;;;5022909;28;20021;-88
2023/08/29 08:49:34;;;;;;;3.42;2.97;;;15.30;99.90;;;;;;5023177;28;20719;-88
2023/08/29 08:52:00;;;;;;;4.65;2.63;;;15.30;99.90;;;;;;5023081;28;20055;-89
2023/08/29 08:54:26;;;;;;;3.05;2.80;;;15.30;99.90;;;;;;5016219;28;20057;-88
2023/08/29 08:56:52;;;;;;;4.45;2.97;;;15.40;99.90;;;;;;5023215;28;20056;-87
2023/08/29 08:59:18;;;;;;;3.33;2.65;;;15.40;99.90;;;;;;5022359;28;20033;-88
2023/08/29 09:01:44;;;;;;;3.53;2.80;;;15.40;99.90;;;;;;5021802;28;20057;-87
2023/08/29 09:04:09;;;;;;;2.92;2.72;;;15.40;99.90;;;;;;5020376;28;20021;-88
2023/08/29 09:06:35;;;;;;;3.72;2.72;;;15.50;99.90;;;;;;5026856;28;20017;-88
2023/08/29 09:09:23;;;;;;;2.97;2.67;;;15.50;99.90;;;;;;5022746;28;20500;-88
2023/08/29 09:11:58;;;;;;;3.83;3.35;;;15.60;99.90;;;;;;5018779;28;20112;-88
2023/08/29 09:14:25;;;;;;;3.93;3.53;;;15.60;99.90;;;;;;5022018;28;20120;-88
2023/08/29 09:16:56;;;;;;;3.17;2.78;;;15.70;99.90;;;;;;5013683;28;20030;-88
2023/08/29 09:19:23;;;;;;;4.63;3.75;;;15.80;99.90;;;;;;5013270;28;20547;-88
2023/08/29 09:21:49;;;;;;;3.13;2.83;;;15.80;99.90;;;;;;5020527;28;20034;-88
2023/08/29 09:24:28;;;;;;;5.22;2.35;;;15.90;99.90;;;;;;5014225;28;20507;-89
2023/08/29 09:26:53;;;;;;;4.40;2.72;;;16.00;99.90;;;;;;5027454;28;20085;-88
2023/08/29 09:29:21;;;;;;;3.67;2.78;;;16.00;99.90;;;;;;5035500;28;20029;-89
2023/08/29 09:31:47;;;;;;;3.92;2.55;;;16.10;99.90;;;;;;5030141;28;20121;-87
2023/08/29 09:34:32;;;;;;;3.40;2.95;;;16.10;99.90;;;;;;5017871;28;20131;-88
2023/08/29 09:37:04;;;;;;;3.55;2.72;;;16.00;99.90;;;;;;5011083;28;20402;-88
2023/08/29 09:39:30;;;;;;;5.30;3.28;;;16.10;99.90;;;;;;5019154;28;20489;-88
2023/08/29 09:42:06;;;;;;;3.45;3.15;;;16.20;99.90;;;;;;5023252;28;20167;-89
2023/08/29 09:44:37;;;;;;;2.33;2.13;;;16.20;99.90;;;;;;5020046;28;20095;-88
2023/08/29 09:47:06;;;;;;;3.17;2.20;;;16.30;99.90;;;;;;5020821;28;20020;-88
2023/08/29 09:49:43;;;;;;;4.30;2.22;;;16.40;99.90;;;;;;5020608;28;20026;-88
2023/08/29 09:52:09;;;;;;;3.90;2.60;;;16.50;99.90;;;;;;5021863;28;20021;-88
2023/08/29 09:54:39;;;;;;;2.38;2.17;;;16.60;99.90;;;;;;5017639;28;20404;-88
2023/08/29 09:57:08;;;;;;;2.47;1.73;;;16.80;99.90;;;;;;5013738;28;20496;-88
2023/08/29 09:59:39;;;;;;;2.17;1.90;;;16.90;99.90;;;;;;5019343;28;20103;-86
2023/08/29 10:02:06;;;;;;;1.60;1.48;;;16.90;99.90;;;;;;5023436;28;20091;-88
2023/08/29 10:04:34;;;;;;;2.97;1.50;;;17.00;99.90;;;;;;5015907;28;20026;-88
2023/08/29 10:07:01;;;;;;;3.17;1.60;;;17.00;99.90;;;;;;5026731;28;20023;-88
2023/08/29 10:09:29;;;;;;;1.67;1.50;;;17.10;99.90;;;;;;5022265;28;20366;-86
2023/08/29 10:11:55;;;;;;;4.32;2.30;;;17.20;99.90;;;;;;5019932;28;20025;-88
2023/08/29 10:14:22;;;;;;;2.63;1.40;;;17.10;99.90;;;;;;5021121;28;20551;-88
2023/08/29 10:16:49;;;;;;;1.60;1.25;;;17.20;99.90;;;;;;5015731;28;20021;-88
2023/08/29 10:19:15;;;;;;;0.90;0.90;;;17.20;99.90;;;;;;5013644;28;20053;-88
2023/08/29 10:21:46;;;;;;;1.23;0.90;;;17.30;99.90;;;;;;5018419;28;20030;-88
2023/08/29 10:24:12;;;;;;;1.30;1.20;;;17.40;99.90;;;;;;5017597;28;20397;-87
2023/08/29 10:26:38;;;;;;;1.65;1.17;;;17.60;99.90;;;;;;5022882;28;20029;-87
2023/08/29 10:29:05;;;;;;;2.83;1.08;;;17.70;99.90;;;;;;5014181;28;20443;-88
2023/08/29 10:31:33;;;;;;;2.33;1.25;;;17.90;99.90;;;;;;5028379;28;20381;-86
2023/08/29 10:34:03;;;;;;;1.20;1.10;;;18.00;99.90;;;;;;5023948;28;20030;-88
2023/08/29 10:36:29;;;;;;;2.08;1.20;;;18.00;99.90;;;;;;5024127;28;20033;-88
2023/08/29 10:38:57;;;;;;;0.70;0.70;;;18.10;99.90;;;;;;5024751;28;20025;-87
2023/08/29 10:41:23;;;;;;;0.98;0.88;;;17.90;99.90;;;;;;5015754;28;20022;-87
2023/08/29 10:43:53;;;;;;;0.95;0.80;;;18.00;99.90;;;;;;5022205;28;20121;-87
2023/08/29 10:46:20;;;;;;;0.80;0.70;;;17.90;99.90;;;;;;5022984;28;20030;-87
2023/08/29 10:48:46;;;;;;;0.80;0.70;;;18.00;99.90;;;;;;5029581;28;20024;-87
2023/08/29 10:51:13;;;;;;;1.15;0.63;;;18.10;99.90;;;;;;5026284;28;20437;-87
2023/08/29 10:53:51;;;;;;;1.35;0.88;;;18.10;99.90;;;;;;5025148;28;20030;-86
2023/08/29 10:56:20;;;;;;;1.65;0.85;;;18.20;99.90;;;;;;5015235;28;20057;-87
2023/08/29 10:58:50;;;;;;;2.28;1.05;;;18.20;99.90;;;;;;5024943;28;20025;-87
2023/08/29 11:01:26;;;;;;;1.52;1.17;;;18.20;99.90;;;;;;5025574;28;20042;-87
2023/08/29 11:03:52;;;;;;;2.75;1.27;;;18.20;99.90;;;;;;5012363;28;20445;-88
2023/08/29 11:06:20;;;;;;;2.97;0.80;;;18.20;99.90;;;;;;5030208;28;20049;-87
2023/08/29 11:08:45;;;;;;;1.05;0.77;;;18.20;99.90;;;;;;5027813;28;20013;-88
2023/08/29 11:11:21;;;;;;;1.17;0.80;;;18.20;99.90;;;;;;5022943;28;20029;-86
2023/08/29 11:13:56;;;;;;;1.52;0.50;;;18.30;99.90;;;;;;5027333;28;20021;-88
2023/08/29 11:16:21;;;;;;;1.95;0.80;;;18.30;99.90;;;;;;5017098;28;20034;-86
2023/08/29 11:18:47;;;;;;;1.40;0.80;;;18.40;99.90;;;;;;5025010;28;20033;-86
2023/08/29 11:21:15;;;;;;;1.55;1.00;;;18.40;99.90;;;;;;5026150;28;20660;-83
2023/08/29 11:23:42;;;;;;;0.70;0.70;;;18.50;99.90;;;;;;5026777;28;20033;-84
2023/08/29 11:26:08;;;;;;;1.42;0.70;;;18.50;99.90;;;;;;5024802;28;20022;-83
2023/08/29 11:28:39;;;;;;;0.77;0.77;;;18.50;99.90;;;;;;5023282;28;20113;-83
2023/08/29 11:31:05;;;;;;;0.57;0.57;;;18.50;99.90;;;;;;5022679;28;20041;-82
2023/08/29 11:33:35;;;;;;;1.10;0.90;;;18.50;99.90;;;;;;5023203;28;20491;-83
2023/08/29 11:36:05;;;;;;;1.25;0.70;;;18.40;99.90;;;;;;5020276;28;20026;-85
2023/08/29 11:38:32;;;;;;;0.80;0.65;;;18.40;99.90;;;;;;5027305;28;20116;-87
2023/08/29 11:40:59;;;;;;;0.90;0.70;;;18.30;99.90;;;;;;5020550;28;20105;-87
2023/08/29 11:43:25;;;;;;;0.70;0.70;;;18.40;99.90;;;;;;5028166;28;20083;-88
2023/08/29 11:45:53;;;;;;;1.02;0.65;;;18.40;99.90;;;;;;5020533;28;20022;-87
2023/08/29 11:48:23;;;;;;;0.70;0.60;;;18.50;99.90;;;;;;5029559;28;20045;-87
2023/08/29 11:50:54;;;;;;;0.95;0.60;;;18.50;99.90;;;;;;5015343;28;20056;-86
2023/08/29 11:53:26;;;;;;;2.30;0.77;;;18.50;99.90;;;;;;5021558;28;20487;-87
2023/08/29 11:55:52;;;;;;;1.20;0.73;;;18.50;99.90;;;;;;5015143;28;20113;-86
2023/08/29 11:58:18;;;;;;;2.17;0.80;;;18.50;99.90;;;;;;5022097;28;20121;-86
2023/08/29 12:00:43;;;;;;;0.85;0.80;;;18.50;99.90;;;;;;5023179;28;20046;-86
2023/08/29 12:03:09;;;;;;;1.33;0.80;;;18.60;99.90;;;;;;5020951;28;20033;-86
2023/08/29 12:05:35;;;;;;;0.80;0.60;;;18.60;99.90;;;;;;5025068;28;20079;-86
2023/08/29 12:08:00;;;;;;;1.35;0.80;;;18.70;99.90;;;;;;5025070;28;20405;-85
2023/08/29 12:10:29;;;;;;;1.77;0.60;;;18.80;99.90;;;;;;5022921;28;20058;-87
2023/08/29 12:12:55;;;;;;;0.55;0.47;;;18.80;99.90;;;;;;5026066;28;20041;-87
2023/08/29 12:15:34;;;;;;;1.25;0.60;;;18.80;99.90;;;;;;5022028;28;20053;-86
2023/08/29 12:18:00;;;;;;;1.02;0.70;;;18.70;99.90;;;;;;5009167;28;20018;-87
2023/08/29 12:20:26;;;;;;;1.35;0.50;;;18.70;99.90;;;;;;5020402;28;20475;-86
2023/08/29 12:22:52;;;;;;;1.60;0.68;;;18.70;99.90;;;;;;5022565;28;20108;-87
2023/08/29 12:25:19;;;;;;;1.20;0.70;;;18.70;99.90;;;;;;5024017;28;20631;-86
2023/08/29 12:27:45;;;;;;;1.20;0.55;;;18.70;99.90;;;;;;5023093;28;20036;-87
2023/08/29 12:30:15;;;;;;;1.08;0.88;;;18.80;99.90;;;;;;5018553;28;20030;-86
2023/08/29 12:32:42;;;;;;;0.52;0.52;;;18.90;99.90;;;;;;5020228;28;20022;-87
2023/08/29 12:35:08;;;;;;;1.48;0.82;;;19.00;99.90;;;;;;5020980;28;20060;-86
2023/08/29 12:37:34;;;;;;;2.08;1.27;;;19.10;99.90;;;;;;5023187;28;20022;-86
2023/08/29 12:40:04;;;;;;;1.10;1.00;;;19.20;99.90;;;;;;5025152;28;20026;-86
2023/08/29 12:42:30;;;;;;;1.05;0.93;;;19.30;99.90;;;;;;5015389;28;20107;-86